sensor_id;sensor_type;location;lat;lon;timestamp;P1;durP1;ratioP1;P2;durP2;ratioP2
39176;SDS011;24904;52.208;21.192;2024-03-17T00:03:35;7.40;;;2.30;;
39176;SDS011;24904;52.208;21.192;2024-03-17T00:08:38;9.60;;;2.40;;
39176;SDS011;24904;52.208;21.192;2024-03-17T00:13:41;8.70;;;2.10;;
39176;SDS011;24904;52.208;21.192;2024-03-17T00:18:44;9.30;;;2.30;;
39176;SDS011;24904;52.208;21.192;2024-03-17T00:23:47;11.40;;;2.10;;
39176;SDS011;24904;52.208;21.192;2024-03-17T00:28:51;14.50;;;2.40;;
39176;SDS011;24904;52.208;21.192;2024-03-17T00:33:54;8.10;;;2.70;;
39176;SDS011;24904;52.208;21.192;2024-03-17T00:38:57;13.70;;;2.70;;
39176;SDS011;24904;52.208;21.192;2024-03-17T00:44:01;8.50;;;2.70;;
39176;SDS011;24904;52.208;21.192;2024-03-17T00:49:05;9.10;;;2.40;;
39176;SDS011;24904;52.208;21.192;2024-03-17T00:54:08;9.50;;;2.50;;
39176;SDS011;24904;52.208;21.192;2024-03-17T00:59:11;14.00;;;2.50;;
39176;SDS011;24904;52.208;21.192;2024-03-17T01:04:14;10.20;;;2.20;;
39176;SDS011;24904;52.208;21.192;2024-03-17T01:09:17;11.90;;;2.10;;
39176;SDS011;24904;52.208;21.192;2024-03-17T01:14:20;8.20;;;1.80;;
39176;SDS011;24904;52.208;21.192;2024-03-17T01:19:24;10.30;;;2.00;;
39176;SDS011;24904;52.208;21.192;2024-03-17T01:24:27;12.50;;;2.30;;
39176;SDS011;24904;52.208;21.192;2024-03-17T01:29:32;14.00;;;2.60;;
39176;SDS011;24904;52.208;21.192;2024-03-17T01:34:36;10.60;;;3.50;;
39176;SDS011;24904;52.208;21.192;2024-03-17T01:39:39;9.90;;;2.20;;
39176;SDS011;24904;52.208;21.192;2024-03-17T01:44:42;6.90;;;1.80;;
39176;SDS011;24904;52.208;21.192;2024-03-17T01:49:45;14.60;;;2.80;;
39176;SDS011;24904;52.208;21.192;2024-03-17T01:54:51;15.90;;;2.20;;
39176;SDS011;24904;52.208;21.192;2024-03-17T01:59:55;11.10;;;2.20;;
39176;SDS011;24904;52.208;21.192;2024-03-17T02:04:58;7.80;;;1.90;;
39176;SDS011;24904;52.208;21.192;2024-03-17T02:10:02;6.60;;;2.20;;
39176;SDS011;24904;52.208;21.192;2024-03-17T02:15:07;15.20;;;2.60;;
39176;SDS011;24904;52.208;21.192;2024-03-17T02:20:11;6.20;;;1.80;;
39176;SDS011;24904;52.208;21.192;2024-03-17T02:25:15;12.10;;;2.50;;
39176;SDS011;24904;52.208;21.192;2024-03-17T02:30:18;12.30;;;2.50;;
39176;SDS011;24904;52.208;21.192;2024-03-17T02:35:22;8.80;;;2.90;;
39176;SDS011;24904;52.208;21.192;2024-03-17T02:40:25;12.50;;;2.20;;
39176;SDS011;24904;52.208;21.192;2024-03-17T02:45:28;12.50;;;2.40;;
39176;SDS011;24904;52.208;21.192;2024-03-17T02:50:31;13.60;;;2.50;;
39176;SDS011;24904;52.208;21.192;2024-03-17T02:55:35;10.90;;;2.60;;
39176;SDS011;24904;52.208;21.192;2024-03-17T03:00:38;10.60;;;2.00;;
39176;SDS011;24904;52.208;21.192;2024-03-17T03:05:41;10.80;;;2.30;;
39176;SDS011;24904;52.208;21.192;2024-03-17T03:10:44;11.50;;;2.30;;
39176;SDS011;24904;52.208;21.192;2024-03-17T03:15:47;11.90;;;2.10;;
39176;SDS011;24904;52.208;21.192;2024-03-17T03:20:51;13.50;;;2.20;;
39176;SDS011;24904;52.208;21.192;2024-03-17T03:25:57;20.00;;;3.20;;
39176;SDS011;24904;52.208;21.192;2024-03-17T03:31:01;15.30;;;3.50;;
39176;SDS011;24904;52.208;21.192;2024-03-17T03:36:08;10.10;;;2.20;;
39176;SDS011;24904;52.208;21.192;2024-03-17T03:41:14;6.70;;;1.90;;
39176;SDS011;24904;52.208;21.192;2024-03-17T03:46:17;11.60;;;2.40;;
39176;SDS011;24904;52.208;21.192;2024-03-17T03:51:21;9.60;;;2.30;;
39176;SDS011;24904;52.208;21.192;2024-03-17T03:56:24;12.70;;;2.20;;
39176;SDS011;24904;52.208;21.192;2024-03-17T04:01:27;16.20;;;2.70;;
39176;SDS011;24904;52.208;21.192;2024-03-17T04:06:30;9.40;;;2.70;;
39176;SDS011;24904;52.208;21.192;2024-03-17T04:11:34;12.80;;;2.90;;
39176;SDS011;24904;52.208;21.192;2024-03-17T04:16:37;14.50;;;3.10;;
39176;SDS011;24904;52.208;21.192;2024-03-17T04:21:40;16.60;;;3.10;;
39176;SDS011;24904;52.208;21.192;2024-03-17T04:26:43;13.60;;;3.20;;
39176;SDS011;24904;52.208;21.192;2024-03-17T04:31:46;21.10;;;3.70;;
39176;SDS011;24904;52.208;21.192;2024-03-17T04:36:49;16.10;;;3.80;;
39176;SDS011;24904;52.208;21.192;2024-03-17T04:41:53;12.80;;;3.00;;
39176;SDS011;24904;52.208;21.192;2024-03-17T04:46:56;11.60;;;3.30;;
39176;SDS011;24904;52.208;21.192;2024-03-17T04:51:59;15.20;;;2.90;;
39176;SDS011;24904;52.208;21.192;2024-03-17T05:05:23;11.70;;;3.20;;
39176;SDS011;24904;52.208;21.192;2024-03-17T05:10:26;14.10;;;2.90;;
39176;SDS011;24904;52.208;21.192;2024-03-17T05:15:29;7.30;;;3.00;;
39176;SDS011;24904;52.208;21.192;2024-03-17T05:20:32;12.70;;;3.20;;
39176;SDS011;24904;52.208;21.192;2024-03-17T05:25:35;10.00;;;3.50;;
39176;SDS011;24904;52.208;21.192;2024-03-17T05:30:38;9.00;;;2.60;;
39176;SDS011;24904;52.208;21.192;2024-03-17T05:35:41;13.30;;;3.20;;
39176;SDS011;24904;52.208;21.192;2024-03-17T05:40:55;12.70;;;2.60;;
39176;SDS011;24904;52.208;21.192;2024-03-17T05:45:58;11.80;;;2.70;;
39176;SDS011;24904;52.208;21.192;2024-03-17T05:51:02;12.40;;;3.20;;
39176;SDS011;24904;52.208;21.192;2024-03-17T05:56:06;11.10;;;3.70;;
39176;SDS011;24904;52.208;21.192;2024-03-17T06:01:10;11.00;;;3.40;;
39176;SDS011;24904;52.208;21.192;2024-03-17T06:06:50;14.30;;;3.20;;
39176;SDS011;24904;52.208;21.192;2024-03-17T06:11:53;11.70;;;3.60;;
39176;SDS011;24904;52.208;21.192;2024-03-17T06:16:56;13.00;;;3.60;;
39176;SDS011;24904;52.208;21.192;2024-03-17T06:21:59;12.30;;;3.10;;
39176;SDS011;24904;52.208;21.192;2024-03-17T06:27:02;12.40;;;2.80;;
39176;SDS011;24904;52.208;21.192;2024-03-17T06:32:06;13.90;;;4.00;;
39176;SDS011;24904;52.208;21.192;2024-03-17T06:37:09;14.70;;;3.50;;
39176;SDS011;24904;52.208;21.192;2024-03-17T06:42:13;14.60;;;3.00;;
39176;SDS011;24904;52.208;21.192;2024-03-17T06:47:16;14.20;;;3.40;;
39176;SDS011;24904;52.208;21.192;2024-03-17T06:52:19;10.40;;;3.30;;
39176;SDS011;24904;52.208;21.192;2024-03-17T06:57:22;14.30;;;3.10;;
39176;SDS011;24904;52.208;21.192;2024-03-17T07:02:26;12.60;;;2.50;;
39176;SDS011;24904;52.208;21.192;2024-03-17T07:07:29;13.50;;;3.20;;
39176;SDS011;24904;52.208;21.192;2024-03-17T07:12:32;18.40;;;2.50;;
39176;SDS011;24904;52.208;21.192;2024-03-17T07:17:35;11.70;;;2.90;;
39176;SDS011;24904;52.208;21.192;2024-03-17T07:22:38;8.70;;;2.20;;
39176;SDS011;24904;52.208;21.192;2024-03-17T07:27:41;16.00;;;2.60;;
39176;SDS011;24904;52.208;21.192;2024-03-17T07:32:44;9.50;;;2.70;;
39176;SDS011;24904;52.208;21.192;2024-03-17T07:37:47;9.30;;;2.40;;
39176;SDS011;24904;52.208;21.192;2024-03-17T07:42:50;9.10;;;2.40;;
39176;SDS011;24904;52.208;21.192;2024-03-17T07:47:54;10.40;;;2.90;;
39176;SDS011;24904;52.208;21.192;2024-03-17T07:52:57;11.40;;;3.00;;
39176;SDS011;24904;52.208;21.192;2024-03-17T07:58:00;13.70;;;3.30;;
39176;SDS011;24904;52.208;21.192;2024-03-17T08:03:04;10.80;;;2.50;;
39176;SDS011;24904;52.208;21.192;2024-03-17T08:08:08;8.60;;;2.30;;
39176;SDS011;24904;52.208;21.192;2024-03-17T08:13:12;9.10;;;2.90;;
39176;SDS011;24904;52.208;21.192;2024-03-17T08:18:17;10.60;;;2.80;;
39176;SDS011;24904;52.208;21.192;2024-03-17T08:23:20;10.60;;;2.90;;
39176;SDS011;24904;52.208;21.192;2024-03-17T08:28:24;13.30;;;3.00;;
39176;SDS011;24904;52.208;21.192;2024-03-17T08:33:28;12.70;;;2.90;;
39176;SDS011;24904;52.208;21.192;2024-03-17T08:38:33;10.70;;;3.00;;
39176;SDS011;24904;52.208;21.192;2024-03-17T08:43:38;13.10;;;3.00;;
39176;SDS011;24904;52.208;21.192;2024-03-17T08:48:42;12.30;;;3.30;;
39176;SDS011;24904;52.208;21.192;2024-03-17T08:53:45;13.70;;;3.90;;
39176;SDS011;24904;52.208;21.192;2024-03-17T08:58:49;7.90;;;2.60;;
39176;SDS011;24904;52.208;21.192;2024-03-17T09:03:52;15.70;;;3.00;;
39176;SDS011;24904;52.208;21.192;2024-03-17T09:08:57;9.50;;;3.50;;
39176;SDS011;24904;52.208;21.192;2024-03-17T09:14:00;9.60;;;3.00;;
39176;SDS011;24904;52.208;21.192;2024-03-17T09:19:03;11.40;;;3.10;;
39176;SDS011;24904;52.208;21.192;2024-03-17T09:24:07;18.10;;;3.70;;
39176;SDS011;24904;52.208;21.192;2024-03-17T09:29:10;12.10;;;3.20;;
39176;SDS011;24904;52.208;21.192;2024-03-17T09:34:13;9.60;;;4.00;;
39176;SDS011;24904;52.208;21.192;2024-03-17T09:39:16;10.80;;;3.40;;
39176;SDS011;24904;52.208;21.192;2024-03-17T09:44:21;8.10;;;2.30;;
39176;SDS011;24904;52.208;21.192;2024-03-17T09:49:24;6.10;;;1.90;;
39176;SDS011;24904;52.208;21.192;2024-03-17T09:54:27;5.60;;;1.50;;
39176;SDS011;24904;52.208;21.192;2024-03-17T10:05:04;9.60;;;2.50;;
39176;SDS011;24904;52.208;21.192;2024-03-17T10:10:20;3.10;;;1.80;;
39176;SDS011;24904;52.208;21.192;2024-03-17T10:15:23;3.70;;;1.70;;
39176;SDS011;24904;52.208;21.192;2024-03-17T10:20:26;8.80;;;1.90;;
39176;SDS011;24904;52.208;21.192;2024-03-17T10:25:30;4.70;;;2.50;;
39176;SDS011;24904;52.208;21.192;2024-03-17T10:30:34;9.60;;;2.70;;
39176;SDS011;24904;52.208;21.192;2024-03-17T10:35:38;7.80;;;2.40;;
39176;SDS011;24904;52.208;21.192;2024-03-17T10:40:41;5.50;;;1.90;;
39176;SDS011;24904;52.208;21.192;2024-03-17T10:45:44;5.40;;;2.10;;
39176;SDS011;24904;52.208;21.192;2024-03-17T10:50:48;4.60;;;2.20;;
39176;SDS011;24904;52.208;21.192;2024-03-17T10:55:53;5.40;;;2.50;;
39176;SDS011;24904;52.208;21.192;2024-03-17T11:01:07;10.10;;;2.10;;
39176;SDS011;24904;52.208;21.192;2024-03-17T11:06:15;5.40;;;2.00;;
39176;SDS011;24904;52.208;21.192;2024-03-17T11:16:40;5.90;;;2.30;;
39176;SDS011;24904;52.208;21.192;2024-03-17T11:21:43;7.30;;;2.50;;
39176;SDS011;24904;52.208;21.192;2024-03-17T11:26:48;5.70;;;2.40;;
39176;SDS011;24904;52.208;21.192;2024-03-17T11:31:51;8.60;;;2.10;;
39176;SDS011;24904;52.208;21.192;2024-03-17T11:36:56;4.90;;;2.90;;
39176;SDS011;24904;52.208;21.192;2024-03-17T11:42:05;5.30;;;2.10;;
39176;SDS011;24904;52.208;21.192;2024-03-17T11:47:15;6.80;;;2.30;;
39176;SDS011;24904;52.208;21.192;2024-03-17T11:52:18;4.00;;;1.90;;
39176;SDS011;24904;52.208;21.192;2024-03-17T11:57:23;3.50;;;1.70;;
39176;SDS011;24904;52.208;21.192;2024-03-17T12:02:29;5.40;;;3.00;;
39176;SDS011;24904;52.208;21.192;2024-03-17T12:07:32;5.40;;;2.50;;
39176;SDS011;24904;52.208;21.192;2024-03-17T12:12:46;5.80;;;2.00;;
39176;SDS011;24904;52.208;21.192;2024-03-17T12:17:52;3.20;;;1.70;;
39176;SDS011;24904;52.208;21.192;2024-03-17T12:22:55;4.40;;;2.20;;
39176;SDS011;24904;52.208;21.192;2024-03-17T12:27:59;6.20;;;1.80;;
39176;SDS011;24904;52.208;21.192;2024-03-17T12:33:03;3.20;;;1.70;;
39176;SDS011;24904;52.208;21.192;2024-03-17T12:38:19;2.70;;;1.40;;
39176;SDS011;24904;52.208;21.192;2024-03-17T12:43:24;3.60;;;1.40;;
39176;SDS011;24904;52.208;21.192;2024-03-17T12:48:28;3.80;;;1.70;;
39176;SDS011;24904;52.208;21.192;2024-03-17T12:53:31;3.40;;;1.30;;
39176;SDS011;24904;52.208;21.192;2024-03-17T12:58:34;1.70;;;1.00;;
39176;SDS011;24904;52.208;21.192;2024-03-17T13:04:04;2.00;;;1.20;;
39176;SDS011;24904;52.208;21.192;2024-03-17T13:09:09;2.40;;;1.10;;
39176;SDS011;24904;52.208;21.192;2024-03-17T13:14:12;1.90;;;1.20;;
39176;SDS011;24904;52.208;21.192;2024-03-17T13:19:18;1.90;;;0.80;;
39176;SDS011;24904;52.208;21.192;2024-03-17T13:24:39;12.30;;;2.00;;
39176;SDS011;24904;52.208;21.192;2024-03-17T13:29:43;3.50;;;1.60;;
39176;SDS011;24904;52.208;21.192;2024-03-17T13:34:51;3.20;;;1.50;;
39176;SDS011;24904;52.208;21.192;2024-03-17T13:39:56;3.10;;;1.50;;
39176;SDS011;24904;52.208;21.192;2024-03-17T13:45:04;6.90;;;1.50;;
39176;SDS011;24904;52.208;21.192;2024-03-17T13:50:12;3.30;;;1.50;;
39176;SDS011;24904;52.208;21.192;2024-03-17T13:55:18;6.20;;;2.10;;
39176;SDS011;24904;52.208;21.192;2024-03-17T14:00:23;3.70;;;2.30;;
39176;SDS011;24904;52.208;21.192;2024-03-17T14:05:29;3.20;;;2.20;;
39176;SDS011;24904;52.208;21.192;2024-03-17T14:10:36;10.70;;;5.20;;
39176;SDS011;24904;52.208;21.192;2024-03-17T14:15:42;8.30;;;4.70;;
39176;SDS011;24904;52.208;21.192;2024-03-17T14:20:47;9.00;;;3.90;;
39176;SDS011;24904;52.208;21.192;2024-03-17T14:25:51;5.50;;;3.50;;
39176;SDS011;24904;52.208;21.192;2024-03-17T14:30:56;5.50;;;3.30;;
39176;SDS011;24904;52.208;21.192;2024-03-17T14:36:01;5.00;;;2.40;;
39176;SDS011;24904;52.208;21.192;2024-03-17T14:41:06;4.10;;;2.30;;
39176;SDS011;24904;52.208;21.192;2024-03-17T14:46:11;5.80;;;2.00;;
39176;SDS011;24904;52.208;21.192;2024-03-17T14:51:16;5.30;;;2.70;;
39176;SDS011;24904;52.208;21.192;2024-03-17T14:56:20;3.50;;;2.40;;
39176;SDS011;24904;52.208;21.192;2024-03-17T15:01:25;4.10;;;2.00;;
39176;SDS011;24904;52.208;21.192;2024-03-17T15:06:31;3.80;;;2.50;;
39176;SDS011;24904;52.208;21.192;2024-03-17T15:11:36;4.50;;;2.50;;
39176;SDS011;24904;52.208;21.192;2024-03-17T15:16:41;3.60;;;2.00;;
39176;SDS011;24904;52.208;21.192;2024-03-17T15:21:46;3.40;;;2.00;;
39176;SDS011;24904;52.208;21.192;2024-03-17T15:26:50;2.70;;;1.80;;
39176;SDS011;24904;52.208;21.192;2024-03-17T15:31:55;3.00;;;2.10;;
39176;SDS011;24904;52.208;21.192;2024-03-17T15:37:00;3.50;;;1.90;;
39176;SDS011;24904;52.208;21.192;2024-03-17T15:42:05;4.70;;;2.20;;
39176;SDS011;24904;52.208;21.192;2024-03-17T15:47:14;3.90;;;2.00;;
39176;SDS011;24904;52.208;21.192;2024-03-17T15:52:19;4.50;;;2.90;;
39176;SDS011;24904;52.208;21.192;2024-03-17T15:57:23;7.70;;;2.90;;
39176;SDS011;24904;52.208;21.192;2024-03-17T16:02:28;6.10;;;4.00;;
39176;SDS011;24904;52.208;21.192;2024-03-17T16:07:33;5.20;;;3.40;;
39176;SDS011;24904;52.208;21.192;2024-03-17T16:12:38;7.00;;;3.70;;
39176;SDS011;24904;52.208;21.192;2024-03-17T16:17:43;4.90;;;3.00;;
39176;SDS011;24904;52.208;21.192;2024-03-17T16:22:48;4.60;;;3.30;;
39176;SDS011;24904;52.208;21.192;2024-03-17T16:27:55;5.70;;;2.90;;
39176;SDS011;24904;52.208;21.192;2024-03-17T16:33:02;4.30;;;3.00;;
39176;SDS011;24904;52.208;21.192;2024-03-17T16:38:07;4.80;;;3.00;;
39176;SDS011;24904;52.208;21.192;2024-03-17T16:43:13;8.20;;;3.20;;
39176;SDS011;24904;52.208;21.192;2024-03-17T16:48:24;7.00;;;3.30;;
39176;SDS011;24904;52.208;21.192;2024-03-17T16:53:29;7.00;;;4.00;;
39176;SDS011;24904;52.208;21.192;2024-03-17T16:58:34;6.00;;;3.20;;
39176;SDS011;24904;52.208;21.192;2024-03-17T17:03:39;6.00;;;3.20;;
39176;SDS011;24904;52.208;21.192;2024-03-17T17:08:44;6.90;;;3.30;;
39176;SDS011;24904;52.208;21.192;2024-03-17T17:13:48;4.40;;;2.90;;
39176;SDS011;24904;52.208;21.192;2024-03-17T17:18:54;3.70;;;2.70;;
39176;SDS011;24904;52.208;21.192;2024-03-17T17:24:01;4.40;;;2.50;;
39176;SDS011;24904;52.208;21.192;2024-03-17T17:29:06;5.80;;;2.60;;
39176;SDS011;24904;52.208;21.192;2024-03-17T17:34:12;6.40;;;2.00;;
39176;SDS011;24904;52.208;21.192;2024-03-17T17:39:16;5.00;;;2.30;;
39176;SDS011;24904;52.208;21.192;2024-03-17T17:44:22;3.50;;;2.50;;
39176;SDS011;24904;52.208;21.192;2024-03-17T17:49:27;7.60;;;3.40;;
39176;SDS011;24904;52.208;21.192;2024-03-17T17:54:32;6.30;;;4.10;;
39176;SDS011;24904;52.208;21.192;2024-03-17T17:59:37;6.10;;;3.60;;
39176;SDS011;24904;52.208;21.192;2024-03-17T18:04:42;6.90;;;3.20;;
39176;SDS011;24904;52.208;21.192;2024-03-17T18:09:46;6.10;;;3.50;;
39176;SDS011;24904;52.208;21.192;2024-03-17T18:14:51;4.50;;;3.30;;
39176;SDS011;24904;52.208;21.192;2024-03-17T18:19:57;4.90;;;3.00;;
39176;SDS011;24904;52.208;21.192;2024-03-17T18:25:02;3.70;;;2.30;;
39176;SDS011;24904;52.208;21.192;2024-03-17T18:30:13;5.50;;;3.30;;
39176;SDS011;24904;52.208;21.192;2024-03-17T18:35:18;7.00;;;2.80;;
39176;SDS011;24904;52.208;21.192;2024-03-17T18:40:23;7.40;;;3.60;;
39176;SDS011;24904;52.208;21.192;2024-03-17T18:45:30;7.30;;;3.00;;
39176;SDS011;24904;52.208;21.192;2024-03-17T18:50:35;8.20;;;3.60;;
39176;SDS011;24904;52.208;21.192;2024-03-17T18:55:40;5.60;;;3.00;;
39176;SDS011;24904;52.208;21.192;2024-03-17T19:00:46;8.00;;;3.80;;
39176;SDS011;24904;52.208;21.192;2024-03-17T19:05:56;8.10;;;3.50;;
39176;SDS011;24904;52.208;21.192;2024-03-17T19:11:09;7.90;;;4.00;;
39176;SDS011;24904;52.208;21.192;2024-03-17T19:16:16;8.40;;;4.10;;
39176;SDS011;24904;52.208;21.192;2024-03-17T19:21:21;14.90;;;4.20;;
39176;SDS011;24904;52.208;21.192;2024-03-17T19:26:26;8.20;;;4.50;;
39176;SDS011;24904;52.208;21.192;2024-03-17T19:31:31;7.20;;;3.90;;
39176;SDS011;24904;52.208;21.192;2024-03-17T19:36:37;7.60;;;3.40;;
39176;SDS011;24904;52.208;21.192;2024-03-17T19:41:41;5.30;;;2.90;;
39176;SDS011;24904;52.208;21.192;2024-03-17T19:46:46;4.00;;;2.40;;
39176;SDS011;24904;52.208;21.192;2024-03-17T19:51:51;4.10;;;2.50;;
39176;SDS011;24904;52.208;21.192;2024-03-17T19:56:56;5.10;;;2.60;;
39176;SDS011;24904;52.208;21.192;2024-03-17T20:02:02;5.70;;;2.30;;
39176;SDS011;24904;52.208;21.192;2024-03-17T20:07:07;5.30;;;2.90;;
39176;SDS011;24904;52.208;21.192;2024-03-17T20:12:13;4.80;;;2.90;;
39176;SDS011;24904;52.208;21.192;2024-03-17T20:17:18;7.90;;;3.90;;
39176;SDS011;24904;52.208;21.192;2024-03-17T20:22:22;7.20;;;3.40;;
39176;SDS011;24904;52.208;21.192;2024-03-17T20:27:28;6.20;;;3.60;;
39176;SDS011;24904;52.208;21.192;2024-03-17T20:32:33;7.00;;;4.20;;
39176;SDS011;24904;52.208;21.192;2024-03-17T20:37:37;8.50;;;4.10;;
39176;SDS011;24904;52.208;21.192;2024-03-17T20:42:42;5.90;;;3.20;;
39176;SDS011;24904;52.208;21.192;2024-03-17T20:47:47;5.10;;;3.50;;
39176;SDS011;24904;52.208;21.192;2024-03-17T20:52:51;5.90;;;2.60;;
39176;SDS011;24904;52.208;21.192;2024-03-17T20:57:56;3.70;;;2.30;;
39176;SDS011;24904;52.208;21.192;2024-03-17T21:03:01;4.60;;;2.30;;
39176;SDS011;24904;52.208;21.192;2024-03-17T21:08:06;5.90;;;2.50;;
39176;SDS011;24904;52.208;21.192;2024-03-17T21:13:11;6.50;;;2.20;;
39176;SDS011;24904;52.208;21.192;2024-03-17T21:18:16;4.20;;;2.20;;
39176;SDS011;24904;52.208;21.192;2024-03-17T21:23:24;4.30;;;2.00;;
39176;SDS011;24904;52.208;21.192;2024-03-17T21:28:29;3.40;;;2.20;;
39176;SDS011;24904;52.208;21.192;2024-03-17T21:33:34;6.80;;;2.20;;
39176;SDS011;24904;52.208;21.192;2024-03-17T21:38:39;5.10;;;2.30;;
39176;SDS011;24904;52.208;21.192;2024-03-17T21:43:43;4.90;;;2.00;;
39176;SDS011;24904;52.208;21.192;2024-03-17T21:48:48;5.70;;;3.10;;
39176;SDS011;24904;52.208;21.192;2024-03-17T21:53:54;4.90;;;2.40;;
39176;SDS011;24904;52.208;21.192;2024-03-17T21:58:58;5.60;;;2.90;;
39176;SDS011;24904;52.208;21.192;2024-03-17T22:04:03;6.60;;;2.80;;
39176;SDS011;24904;52.208;21.192;2024-03-17T22:09:08;7.30;;;2.80;;
39176;SDS011;24904;52.208;21.192;2024-03-17T22:14:14;7.30;;;2.50;;
39176;SDS011;24904;52.208;21.192;2024-03-17T22:19:18;5.60;;;2.80;;
39176;SDS011;24904;52.208;21.192;2024-03-17T22:24:23;4.00;;;2.00;;
39176;SDS011;24904;52.208;21.192;2024-03-17T22:29:28;4.70;;;2.20;;
39176;SDS011;24904;52.208;21.192;2024-03-17T22:34:32;5.60;;;2.30;;
39176;SDS011;24904;52.208;21.192;2024-03-17T22:39:37;4.60;;;2.40;;
39176;SDS011;24904;52.208;21.192;2024-03-17T22:44:42;5.40;;;2.60;;
39176;SDS011;24904;52.208;21.192;2024-03-17T22:49:46;6.50;;;3.00;;
39176;SDS011;24904;52.208;21.192;2024-03-17T22:54:52;5.60;;;3.00;;
39176;SDS011;24904;52.208;21.192;2024-03-17T22:59:57;4.70;;;2.50;;
39176;SDS011;24904;52.208;21.192;2024-03-17T23:05:02;4.80;;;2.90;;
39176;SDS011;24904;52.208;21.192;2024-03-17T23:10:07;8.60;;;2.80;;
39176;SDS011;24904;52.208;21.192;2024-03-17T23:15:13;5.00;;;2.80;;
39176;SDS011;24904;52.208;21.192;2024-03-17T23:20:17;5.00;;;2.10;;
39176;SDS011;24904;52.208;21.192;2024-03-17T23:25:22;4.50;;;2.50;;
39176;SDS011;24904;52.208;21.192;2024-03-17T23:30:27;4.70;;;2.20;;
39176;SDS011;24904;52.208;21.192;2024-03-17T23:35:32;4.80;;;2.10;;
39176;SDS011;24904;52.208;21.192;2024-03-17T23:40:37;4.50;;;2.60;;
39176;SDS011;24904;52.208;21.192;2024-03-17T23:45:41;4.00;;;2.20;;
39176;SDS011;24904;52.208;21.192;2024-03-17T23:50:47;4.70;;;2.50;;
39176;SDS011;24904;52.208;21.192;2024-03-17T23:55:51;5.10;;;2.00;;
